createdAt,value
2024-01-28T00:02:13.317Z,4.4
2024-01-28T00:05:13.304Z,4.4
2024-01-28T00:08:13.292Z,4.4
2024-01-28T00:11:13.298Z,4.4
2024-01-28T00:14:13.305Z,4.4
2024-01-28T00:17:13.330Z,4.4
2024-01-28T00:20:13.333Z,4.4
2024-01-28T00:23:13.305Z,4.4
2024-01-28T00:26:13.305Z,4.4
2024-01-28T00:29:13.307Z,4.4
2024-01-28T00:32:13.320Z,4.4
2024-01-28T00:35:13.303Z,4.4
2024-01-28T00:38:13.308Z,4.4
2024-01-28T00:41:13.314Z,4.4
2024-01-28T00:44:13.325Z,4.4
2024-01-28T00:47:13.338Z,4.4
2024-01-28T00:50:13.444Z,4.4
2024-01-28T00:53:13.320Z,4.3
2024-01-28T00:56:13.317Z,4.3
2024-01-28T00:59:13.324Z,4.3
2024-01-28T01:02:13.334Z,4.3
2024-01-28T01:05:13.331Z,4.3
2024-01-28T01:08:13.318Z,4.3
2024-01-28T01:11:13.326Z,4.3
2024-01-28T01:14:13.323Z,4.3
2024-01-28T01:17:13.336Z,4.3
2024-01-28T01:20:13.340Z,4.3
2024-01-28T01:23:13.454Z,4.3
2024-01-28T01:26:13.330Z,4.3
2024-01-28T01:29:13.344Z,4.3
2024-01-28T01:32:13.359Z,4.3
2024-01-28T01:35:13.427Z,4.3
2024-01-28T01:38:13.336Z,4.3
2024-01-28T01:41:13.346Z,4.2
2024-01-28T01:44:13.353Z,4.3
2024-01-28T01:47:13.364Z,4.2
2024-01-28T01:50:13.410Z,4.2
2024-01-28T01:53:13.350Z,4.2
2024-01-28T01:56:13.371Z,4.2
2024-01-28T01:59:13.366Z,4.2
2024-01-28T02:02:13.368Z,4.2
2024-01-28T02:05:13.378Z,4.2
2024-01-28T02:08:13.375Z,4.2
2024-01-28T02:11:13.355Z,4.2
2024-01-28T02:14:13.357Z,4.2
2024-01-28T02:17:13.383Z,4.2
2024-01-28T02:20:13.381Z,4.2
2024-01-28T02:23:13.367Z,4.2
2024-01-28T02:26:13.366Z,4.2
2024-01-28T02:29:13.372Z,4.2
2024-01-28T02:32:13.404Z,4.2
2024-01-28T02:35:13.373Z,4.2
2024-01-28T02:38:13.377Z,4.2
2024-01-28T02:41:13.385Z,4.2
2024-01-28T02:44:13.386Z,4.2
2024-01-28T02:47:13.405Z,4.2
2024-01-28T02:50:13.393Z,4.2
2024-01-28T02:53:13.395Z,4.2
2024-01-28T02:56:13.394Z,4.2
2024-01-28T02:59:13.394Z,4.2
2024-01-28T03:02:13.406Z,4.2
2024-01-28T03:05:13.401Z,4.2
2024-01-28T03:08:13.399Z,4.2
2024-01-28T03:11:13.400Z,4.2
2024-01-28T03:14:13.395Z,4.1
2024-01-28T03:17:13.409Z,4.1
2024-01-28T03:20:13.408Z,4.1
2024-01-28T03:23:13.404Z,4.1
2024-01-28T03:26:13.398Z,4.1
2024-01-28T03:29:13.408Z,4.1
2024-01-28T03:32:13.580Z,4.1
2024-01-28T03:35:13.426Z,4.1
2024-01-28T03:38:13.424Z,4.1
2024-01-28T03:41:13.426Z,4.1
2024-01-28T03:44:13.444Z,4.1
2024-01-28T03:47:13.433Z,4.1
2024-01-28T03:50:13.434Z,4.1
2024-01-28T03:53:13.429Z,4.1
2024-01-28T03:56:13.435Z,4.1
2024-01-28T03:59:13.437Z,4.1
2024-01-28T04:02:13.497Z,4.1
2024-01-28T04:05:13.460Z,4.1
2024-01-28T04:08:13.436Z,4.1
2024-01-28T04:11:13.435Z,4.1
2024-01-28T04:14:13.434Z,4.1
2024-01-28T04:17:13.455Z,4.1
2024-01-28T04:20:13.440Z,4.1
2024-01-28T04:23:13.441Z,4.1
2024-01-28T04:26:13.445Z,4.1
2024-01-28T04:29:13.456Z,4.1
2024-01-28T04:32:13.459Z,4.1
2024-01-28T04:35:13.523Z,4.1
2024-01-28T04:38:13.455Z,4
2024-01-28T04:41:13.462Z,4
2024-01-28T04:44:13.465Z,4
2024-01-28T04:47:13.481Z,4
2024-01-28T04:50:13.473Z,4
2024-01-28T04:53:13.469Z,4
2024-01-28T04:56:13.473Z,4
2024-01-28T04:59:13.471Z,4
2024-01-28T05:02:13.489Z,4
2024-01-28T05:05:13.487Z,4
2024-01-28T05:08:13.474Z,4
2024-01-28T05:11:13.482Z,4
2024-01-28T05:14:13.473Z,4
2024-01-28T05:17:13.498Z,4
2024-01-28T05:20:13.484Z,3.9
2024-01-28T05:23:13.480Z,4
2024-01-28T05:26:13.518Z,3.9
2024-01-28T05:29:13.484Z,3.9
2024-01-28T05:32:13.662Z,3.9
2024-01-28T05:35:13.488Z,3.9
2024-01-28T05:38:13.482Z,3.9
2024-01-28T05:41:13.499Z,3.9
2024-01-28T05:44:13.477Z,3.9
2024-01-28T05:47:13.491Z,3.9
2024-01-28T05:50:13.475Z,3.9
2024-01-28T05:53:13.488Z,3.9
2024-01-28T05:56:13.482Z,3.9
2024-01-28T05:59:13.489Z,3.9
2024-01-28T06:02:13.521Z,3.9
2024-01-28T06:05:13.527Z,3.9
2024-01-28T06:08:13.480Z,3.9
2024-01-28T06:11:13.492Z,3.9
2024-01-28T06:14:13.493Z,3.9
2024-01-28T06:17:13.503Z,3.9
2024-01-28T06:20:13.486Z,3.9
2024-01-28T06:23:13.492Z,3.9
2024-01-28T06:26:13.493Z,3.9
2024-01-28T06:29:13.497Z,3.9
2024-01-28T06:32:13.523Z,3.9
2024-01-28T06:35:13.506Z,3.9
2024-01-28T06:38:13.526Z,3.9
2024-01-28T06:41:13.508Z,3.9
2024-01-28T06:44:13.506Z,3.8
2024-01-28T06:47:13.531Z,3.8
2024-01-28T06:50:13.546Z,3.8
2024-01-28T06:53:13.523Z,3.8
2024-01-28T06:56:13.525Z,3.8
2024-01-28T06:59:13.531Z,3.8
2024-01-28T07:02:13.555Z,3.8
2024-01-28T07:05:13.529Z,3.8
2024-01-28T07:08:13.536Z,3.8
2024-01-28T07:11:13.529Z,3.8
2024-01-28T07:14:13.534Z,3.8
2024-01-28T07:17:13.557Z,3.8
2024-01-28T07:20:13.531Z,3.7
2024-01-28T07:23:13.542Z,3.7
2024-01-28T07:26:13.543Z,3.7
2024-01-28T07:29:13.545Z,3.7
2024-01-28T07:32:13.572Z,3.7
2024-01-28T07:35:13.542Z,3.7
2024-01-28T07:38:13.549Z,3.7
2024-01-28T07:41:13.555Z,3.7
2024-01-28T07:44:13.555Z,3.7
2024-01-28T07:47:13.573Z,3.7
2024-01-28T07:50:13.705Z,3.7
2024-01-28T07:53:13.556Z,3.7
2024-01-28T07:56:13.558Z,3.7
2024-01-28T07:59:13.570Z,3.7
2024-01-28T08:02:13.622Z,3.7
2024-01-28T08:05:13.569Z,3.7
2024-01-28T08:08:15.334Z,3.7
2024-01-28T08:11:13.579Z,3.7
2024-01-28T08:14:13.574Z,3.7
2024-01-28T08:17:13.584Z,3.7
2024-01-28T08:20:13.594Z,3.7
2024-01-28T08:23:13.600Z,3.7
2024-01-28T08:26:13.581Z,3.7
2024-01-28T08:29:13.577Z,3.7
2024-01-28T08:32:13.742Z,3.7
2024-01-28T08:35:13.602Z,3.7
2024-01-28T08:38:13.588Z,3.7
2024-01-28T08:41:13.607Z,3.6
2024-01-28T08:44:13.600Z,3.6
2024-01-28T08:47:13.611Z,3.6
2024-01-28T08:50:13.587Z,3.6
2024-01-28T08:53:13.598Z,3.6
2024-01-28T08:56:13.604Z,3.6
2024-01-28T08:59:13.624Z,3.6
2024-01-28T09:02:13.611Z,3.6
2024-01-28T09:05:13.691Z,3.6
2024-01-28T09:08:13.614Z,3.6
2024-01-28T09:11:13.618Z,3.6
2024-01-28T09:14:13.606Z,3.6
2024-01-28T09:17:14.394Z,3.6
2024-01-28T09:20:13.686Z,3.6
2024-01-28T09:23:13.613Z,3.6
2024-01-28T09:26:13.633Z,3.6
2024-01-28T09:29:13.623Z,3.6
2024-01-28T09:32:14.169Z,3.6
2024-01-28T09:35:13.632Z,3.6
2024-01-28T09:38:13.625Z,3.6
2024-01-28T09:41:13.626Z,3.6
2024-01-28T09:44:13.626Z,3.6
2024-01-28T09:47:13.640Z,3.6
2024-01-28T09:50:13.674Z,3.6
2024-01-28T09:53:13.641Z,3.6
2024-01-28T09:56:13.651Z,3.6
2024-01-28T09:59:13.639Z,3.6
2024-01-28T10:02:13.642Z,3.6
2024-01-28T10:05:13.638Z,3.6
2024-01-28T10:08:13.648Z,3.6
2024-01-28T10:11:13.635Z,3.6
2024-01-28T10:14:13.645Z,3.6
2024-01-28T10:17:13.656Z,3.5
2024-01-28T10:20:13.663Z,3.5
2024-01-28T10:23:13.647Z,3.5
2024-01-28T10:26:13.655Z,3.5
2024-01-28T10:29:13.637Z,3.5
2024-01-28T10:32:13.674Z,3.5
2024-01-28T10:35:13.728Z,3.5
2024-01-28T10:38:13.668Z,3.5
2024-01-28T10:41:13.656Z,3.5
2024-01-28T10:44:13.665Z,3.5
2024-01-28T10:47:13.707Z,3.5
2024-01-28T10:50:13.659Z,3.5
2024-01-28T10:53:13.665Z,3.5
2024-01-28T10:56:13.656Z,3.5
2024-01-28T10:59:13.662Z,3.5
2024-01-28T11:02:13.675Z,3.4
2024-01-28T11:05:13.912Z,3.4
2024-01-28T11:08:13.678Z,3.5
2024-01-28T11:11:13.665Z,3.4
2024-01-28T11:14:13.664Z,3.4
2024-01-28T11:17:13.680Z,3.4
2024-01-28T11:20:13.677Z,3.4
2024-01-28T11:23:13.680Z,3.4
2024-01-28T11:26:13.670Z,3.4
2024-01-28T11:29:13.681Z,3.4
2024-01-28T11:32:13.704Z,3.4
2024-01-28T11:35:13.771Z,3.4
2024-01-28T11:38:13.672Z,3.4
2024-01-28T11:41:13.671Z,3.4
2024-01-28T11:44:13.682Z,3.4
2024-01-28T11:47:13.683Z,3.4
2024-01-28T11:50:14.375Z,3.4
2024-01-28T11:53:13.713Z,3.4
2024-01-28T11:56:13.682Z,3.4
2024-01-28T11:59:13.684Z,3.4
2024-01-28T12:02:13.708Z,3.4
2024-01-28T12:05:13.753Z,3.4
2024-01-28T12:08:13.712Z,3.4
2024-01-28T12:11:13.692Z,3.4
2024-01-28T12:14:13.688Z,3.4
2024-01-28T12:17:13.708Z,3.4
2024-01-28T12:20:13.699Z,3.4
2024-01-28T12:23:13.702Z,3.4
2024-01-28T12:26:13.705Z,3.4
2024-01-28T12:29:13.712Z,3.4
2024-01-28T12:32:13.722Z,3.4
2024-01-28T12:35:13.703Z,3.4
2024-01-28T12:38:13.702Z,3.4
2024-01-28T12:41:13.708Z,3.4
2024-01-28T12:44:13.706Z,3.4
2024-01-28T12:47:13.720Z,3.4
2024-01-28T12:50:13.716Z,3.4
2024-01-28T12:53:13.717Z,3.4
2024-01-28T12:56:13.711Z,3.4
2024-01-28T12:59:13.723Z,3.4
2024-01-28T13:02:13.846Z,3.4
2024-01-28T13:05:13.843Z,3.4
2024-01-28T13:08:13.723Z,3.4
2024-01-28T13:11:13.724Z,3.4
2024-01-28T13:14:13.720Z,3.4
2024-01-28T13:17:13.761Z,3.4
2024-01-28T13:20:13.916Z,3.4
2024-01-28T13:23:13.728Z,3.4
2024-01-28T13:26:13.730Z,3.4
2024-01-28T13:29:13.746Z,3.4
2024-01-28T13:32:13.785Z,3.4
2024-01-28T13:35:13.785Z,3.4
2024-01-28T13:38:13.738Z,3.4
2024-01-28T13:41:13.732Z,3.4
2024-01-28T13:44:13.752Z,3.4
2024-01-28T13:47:13.754Z,3.4
2024-01-28T13:50:13.768Z,3.4
2024-01-28T13:53:13.736Z,3.4
2024-01-28T13:56:13.738Z,3.4
2024-01-28T13:59:15.017Z,3.5
2024-01-28T14:02:13.758Z,3.4
2024-01-28T14:05:13.764Z,3.4
2024-01-28T14:08:13.747Z,3.5
2024-01-28T14:11:13.746Z,3.5
2024-01-28T14:14:13.762Z,3.5
2024-01-28T14:17:13.763Z,3.5
2024-01-28T14:20:13.758Z,3.5
2024-01-28T14:23:13.773Z,3.5
2024-01-28T14:26:13.776Z,3.5
2024-01-28T14:29:13.770Z,3.5
2024-01-28T14:32:13.786Z,3.5
2024-01-28T14:35:13.809Z,3.5
2024-01-28T14:38:13.786Z,3.5
2024-01-28T14:41:13.809Z,3.5
2024-01-28T14:44:13.787Z,3.5
2024-01-28T14:47:13.797Z,3.5
2024-01-28T14:50:13.793Z,3.5
2024-01-28T14:53:13.784Z,3.5
2024-01-28T14:56:13.795Z,3.5
2024-01-28T14:59:13.796Z,3.5
2024-01-28T15:02:13.825Z,3.5
2024-01-28T15:05:13.836Z,3.5
2024-01-28T15:08:13.790Z,3.5
2024-01-28T15:11:13.782Z,3.6
2024-01-28T15:14:13.794Z,3.6
2024-01-28T15:17:13.811Z,3.6
2024-01-28T15:20:13.842Z,3.6
2024-01-28T15:23:13.805Z,3.6
2024-01-28T15:26:13.839Z,3.6
2024-01-28T15:29:13.792Z,3.6
2024-01-28T15:32:13.947Z,3.6
2024-01-28T15:35:13.857Z,3.6
2024-01-28T15:38:13.809Z,3.6
2024-01-28T15:41:13.794Z,3.6
2024-01-28T15:44:13.799Z,3.6
2024-01-28T15:47:13.800Z,3.6
2024-01-28T15:50:13.801Z,3.6
2024-01-28T15:53:13.809Z,3.6
2024-01-28T15:56:13.795Z,3.6
2024-01-28T15:59:13.804Z,3.6
2024-01-28T16:02:13.817Z,3.6
2024-01-28T16:05:13.963Z,3.6
2024-01-28T16:08:13.837Z,3.6
2024-01-28T16:11:13.817Z,3.6
2024-01-28T16:14:13.816Z,3.6
2024-01-28T16:17:13.821Z,3.6
2024-01-28T16:20:13.861Z,3.6
2024-01-28T16:23:13.819Z,3.6
2024-01-28T16:26:13.825Z,3.6
2024-01-28T16:29:13.840Z,3.6
2024-01-28T16:32:13.842Z,3.6
2024-01-28T16:35:13.939Z,3.6
2024-01-28T16:38:13.839Z,3.6
2024-01-28T16:41:13.828Z,3.6
2024-01-28T16:44:13.828Z,3.6
2024-01-28T16:47:13.842Z,3.6
2024-01-28T16:50:13.841Z,3.6
2024-01-28T16:53:13.854Z,3.6
2024-01-28T16:56:13.845Z,3.6
2024-01-28T16:59:13.840Z,3.6
2024-01-28T17:02:13.869Z,3.6
2024-01-28T17:05:13.895Z,3.6
2024-01-28T17:08:13.842Z,3.6
2024-01-28T17:11:13.870Z,3.6
2024-01-28T17:14:13.844Z,3.6
2024-01-28T17:17:13.858Z,3.6
2024-01-28T17:20:13.874Z,3.6
2024-01-28T17:23:13.862Z,3.6
2024-01-28T17:26:13.894Z,3.6
2024-01-28T17:29:13.855Z,3.6
2024-01-28T17:32:14.033Z,3.6
2024-01-28T17:35:13.886Z,3.6
2024-01-28T17:38:13.856Z,3.6
2024-01-28T17:41:13.887Z,3.6
2024-01-28T17:44:13.857Z,3.6
2024-01-28T17:47:13.998Z,3.6
2024-01-28T17:50:13.904Z,3.6
2024-01-28T17:53:13.871Z,3.6
2024-01-28T17:56:13.874Z,3.6
2024-01-28T17:59:13.978Z,3.6
2024-01-28T18:02:13.882Z,3.6
2024-01-28T18:05:13.871Z,3.6
2024-01-28T18:08:13.883Z,3.6
2024-01-28T18:11:13.886Z,3.6
2024-01-28T18:14:13.877Z,3.6
2024-01-28T18:17:13.889Z,3.6
2024-01-28T18:20:13.875Z,3.6
2024-01-28T18:23:14.022Z,3.6
2024-01-28T18:26:13.883Z,3.6
2024-01-28T18:29:13.895Z,3.6
2024-01-28T18:32:13.908Z,3.6
2024-01-28T18:35:13.898Z,3.6
2024-01-28T18:38:13.891Z,3.6
2024-01-28T18:41:13.897Z,3.6
2024-01-28T18:44:13.912Z,3.6
2024-01-28T18:47:13.906Z,3.6
2024-01-28T18:50:14.102Z,3.6
2024-01-28T18:53:14.002Z,3.6
2024-01-28T18:56:14.010Z,3.6
2024-01-28T18:59:14.015Z,3.6
2024-01-28T19:02:14.009Z,3.6
2024-01-28T19:05:14.093Z,3.6
2024-01-28T19:08:14.006Z,3.6
2024-01-28T19:11:14.010Z,3.6
2024-01-28T19:14:14.009Z,3.6
2024-01-28T19:17:15.917Z,3.6
2024-01-28T19:20:14.045Z,3.6
2024-01-28T19:23:14.015Z,3.6
2024-01-28T19:26:14.017Z,3.6
2024-01-28T19:29:14.016Z,3.6
2024-01-28T19:32:14.044Z,3.6
2024-01-28T19:35:14.095Z,3.6
2024-01-28T19:38:14.016Z,3.6
2024-01-28T19:41:14.056Z,3.6
2024-01-28T19:44:14.030Z,3.6
2024-01-28T19:47:14.030Z,3.6
2024-01-28T19:50:14.045Z,3.6
2024-01-28T19:53:14.040Z,3.6
2024-01-28T19:56:14.027Z,3.6
2024-01-28T19:59:14.040Z,3.6
2024-01-28T20:02:14.044Z,3.6
2024-01-28T20:05:14.058Z,3.6
2024-01-28T20:08:14.046Z,3.6
2024-01-28T20:11:14.307Z,3.6
2024-01-28T20:14:14.046Z,3.6
2024-01-28T20:17:14.053Z,3.6
2024-01-28T20:20:14.041Z,3.6
2024-01-28T20:23:14.045Z,3.6
2024-01-28T20:26:14.060Z,3.6
2024-01-28T20:29:14.053Z,3.6
2024-01-28T20:32:14.066Z,3.6
2024-01-28T20:35:14.078Z,3.6
2024-01-28T20:38:14.047Z,3.6
2024-01-28T20:41:14.058Z,3.6
2024-01-28T20:44:14.088Z,3.6
2024-01-28T20:47:15.539Z,3.6
2024-01-28T20:50:14.052Z,3.6
2024-01-28T20:53:14.058Z,3.6
2024-01-28T20:56:14.055Z,3.6
2024-01-28T20:59:14.041Z,3.6
2024-01-28T21:02:15.978Z,3.6
2024-01-28T21:05:14.047Z,3.6
2024-01-28T21:08:14.055Z,3.6
2024-01-28T21:11:14.056Z,3.6
2024-01-28T21:14:14.056Z,3.6
2024-01-28T21:17:14.057Z,3.6
2024-01-28T21:20:14.172Z,3.6
2024-01-28T21:23:14.065Z,3.6
2024-01-28T21:26:14.055Z,3.6
2024-01-28T21:29:14.058Z,3.6
2024-01-28T21:32:14.072Z,3.6
2024-01-28T21:35:14.087Z,3.6
2024-01-28T21:38:14.069Z,3.6
2024-01-28T21:41:14.062Z,3.6
2024-01-28T21:44:14.092Z,3.6
2024-01-28T21:47:14.068Z,3.6
2024-01-28T21:50:14.092Z,3.6
2024-01-28T21:53:14.062Z,3.6
2024-01-28T21:56:14.073Z,3.6
2024-01-28T21:59:14.067Z,3.6
2024-01-28T22:02:14.079Z,3.6
2024-01-28T22:05:14.089Z,3.6
2024-01-28T22:08:14.102Z,3.6
2024-01-28T22:11:14.081Z,3.6
2024-01-28T22:14:14.074Z,3.6
2024-01-28T22:17:14.076Z,3.6
2024-01-28T22:20:14.121Z,3.6
2024-01-28T22:23:14.073Z,3.6
2024-01-28T22:26:14.084Z,3.6
2024-01-28T22:29:14.081Z,3.6
2024-01-28T22:32:14.096Z,3.6
2024-01-28T22:35:14.085Z,3.6
2024-01-28T22:38:14.093Z,3.6
2024-01-28T22:41:14.082Z,3.6
2024-01-28T22:44:14.088Z,3.6
2024-01-28T22:47:14.080Z,3.6
2024-01-28T22:50:14.081Z,3.6
2024-01-28T22:53:14.086Z,3.6
2024-01-28T22:56:14.089Z,3.6
2024-01-28T22:59:14.087Z,3.6
2024-01-28T23:02:14.089Z,3.6
2024-01-28T23:05:14.104Z,3.6
2024-01-28T23:08:14.087Z,3.6
2024-01-28T23:11:14.093Z,3.6
2024-01-28T23:14:14.111Z,3.6
2024-01-28T23:17:14.124Z,3.6
2024-01-28T23:20:14.100Z,3.6
2024-01-28T23:23:14.096Z,3.5
2024-01-28T23:26:14.096Z,3.5
2024-01-28T23:29:14.103Z,3.6
2024-01-28T23:32:14.103Z,3.5
2024-01-28T23:35:14.112Z,3.6
2024-01-28T23:38:14.112Z,3.5
2024-01-28T23:41:14.113Z,3.5
2024-01-28T23:44:14.108Z,3.5
2024-01-28T23:47:14.111Z,3.5
2024-01-28T23:50:14.134Z,3.5
2024-01-28T23:53:14.112Z,3.5
2024-01-28T23:56:14.108Z,3.5
2024-01-28T23:59:14.108Z,3.5
